createdAt,value
2018-05-17T00:04:39.887Z,13.10
2018-05-17T00:09:43.002Z,13.00
2018-05-17T00:14:46.132Z,13.00
2018-05-17T00:19:50.744Z,12.90
2018-05-17T00:24:54.601Z,13.00
2018-05-17T00:29:58.083Z,12.90
2018-05-17T00:35:01.993Z,12.90
2018-05-17T00:40:06.600Z,12.90
2018-05-17T00:45:10.435Z,12.90
2018-05-17T00:50:15.618Z,12.90
2018-05-17T00:55:18.843Z,12.90
2018-05-17T01:00:22.919Z,12.90
2018-05-17T01:10:30.871Z,12.80
2018-05-17T01:15:34.366Z,12.80
2018-05-17T01:20:38.985Z,12.80
2018-05-17T01:25:42.078Z,12.70
2018-05-17T01:30:45.199Z,12.70
2018-05-17T01:35:48.287Z,12.70
2018-05-17T01:40:52.143Z,12.60
2018-05-17T01:45:55.239Z,12.50
2018-05-17T01:51:00.379Z,12.50
2018-05-17T01:56:03.866Z,12.40
2018-05-17T02:01:07.717Z,12.40
2018-05-17T02:06:11.591Z,12.40
2018-05-17T02:11:14.679Z,12.40
2018-05-17T02:16:18.914Z,12.20
2018-05-17T02:21:22.009Z,12.10
2018-05-17T02:26:25.107Z,12.00
2018-05-17T02:31:28.202Z,11.90
2018-05-17T02:36:31.318Z,11.80
2018-05-17T02:41:35.190Z,11.80
2018-05-17T02:46:38.283Z,11.70
2018-05-17T02:51:41.630Z,11.60
2018-05-17T02:56:45.515Z,11.50
2018-05-17T03:01:49.379Z,11.40
2018-05-17T03:06:52.850Z,11.30
2018-05-17T03:11:56.616Z,11.20
2018-05-17T03:16:59.707Z,11.10
2018-05-17T03:27:07.226Z,11.10
2018-05-17T03:32:11.079Z,11.10
2018-05-17T03:37:15.299Z,11.10
2018-05-17T03:42:18.401Z,11.10
2018-05-17T03:47:21.883Z,11.10
2018-05-17T03:52:25.367Z,11.10
2018-05-17T03:57:29.586Z,11.10
2018-05-17T04:02:51.283Z,11.10
2018-05-17T04:07:54.774Z,11.10
2018-05-17T04:12:58.629Z,11.10
2018-05-17T04:18:01.727Z,11.20
2018-05-17T04:23:04.882Z,11.20
2018-05-17T04:28:07.978Z,11.10
2018-05-17T04:33:11.832Z,11.20
2018-05-17T04:38:15.344Z,11.10
2018-05-17T04:43:19.203Z,11.20
2018-05-17T04:48:23.431Z,11.20
2018-05-17T04:58:31.369Z,11.20
2018-05-17T05:03:34.677Z,11.10
2018-05-17T05:08:38.534Z,11.10
2018-05-17T05:13:42.384Z,11.10
2018-05-17T05:18:45.470Z,11.10
2018-05-17T05:23:49.319Z,11.20
2018-05-17T05:28:52.411Z,11.20
2018-05-17T05:33:56.255Z,11.10
2018-05-17T05:39:00.850Z,11.10
2018-05-17T05:44:04.363Z,11.10
2018-05-17T05:49:08.263Z,11.20
2018-05-17T05:54:11.823Z,11.30
2018-05-17T05:59:15.306Z,11.40
2018-05-17T06:04:19.182Z,11.70
2018-05-17T06:09:22.278Z,11.60
2018-05-17T06:14:26.886Z,11.80
2018-05-17T06:19:30.379Z,11.90
2018-05-17T06:24:34.994Z,11.80
2018-05-17T06:29:38.576Z,11.80
2018-05-17T06:34:42.427Z,11.70
2018-05-17T06:39:45.545Z,11.70
2018-05-17T06:44:50.255Z,11.70
2018-05-17T06:49:54.093Z,11.90
2018-05-17T06:54:57.191Z,12.00
2018-05-17T07:05:05.499Z,12.60
2018-05-17T07:10:08.591Z,12.60
2018-05-17T07:15:11.686Z,12.70
2018-05-17T07:20:15.548Z,12.90
2018-05-17T07:25:18.641Z,13.20
2018-05-17T07:30:22.878Z,13.20
2018-05-17T07:35:25.963Z,13.20
2018-05-17T07:40:29.814Z,13.30
2018-05-17T07:45:32.926Z,13.20
2018-05-17T07:50:36.023Z,13.10
2018-05-17T07:55:39.954Z,13.10
2018-05-17T08:00:43.758Z,13.10
2018-05-17T08:05:47.631Z,13.20
2018-05-17T08:10:51.141Z,13.20
2018-05-17T08:15:54.226Z,13.10
2018-05-17T08:20:57.723Z,13.10
2018-05-17T08:26:00.876Z,13.20
2018-05-17T08:31:05.039Z,13.70
2018-05-17T08:36:08.928Z,14.00
2018-05-17T08:51:21.397Z,15.50
2018-05-17T08:56:24.503Z,15.70
2018-05-17T09:01:28.366Z,16.10
2018-05-17T09:06:32.229Z,16.90
2018-05-17T09:16:39.957Z,17.80
2018-05-17T09:21:43.045Z,18.00
2018-05-17T09:26:46.907Z,18.40
2018-05-17T09:36:54.498Z,18.90
2018-05-17T09:41:59.106Z,18.90
2018-05-17T09:47:02.229Z,18.90
2018-05-17T09:52:06.106Z,19.10
2018-05-17T09:57:09.193Z,18.80
2018-05-17T10:02:12.293Z,18.70
2018-05-17T10:07:15.399Z,18.30
2018-05-17T10:12:19.264Z,17.60
2018-05-17T10:17:22.362Z,17.30
2018-05-17T10:22:25.466Z,17.00
2018-05-17T10:27:29.694Z,17.10
2018-05-17T10:32:33.966Z,17.20
2018-05-17T10:37:40.164Z,17.00
2018-05-17T10:47:49.217Z,17.10
2018-05-17T10:57:57.154Z,16.80
2018-05-17T11:03:01.762Z,16.80
2018-05-17T11:08:05.162Z,16.80
2018-05-17T11:13:09.037Z,16.80
2018-05-17T11:18:12.138Z,16.90
2018-05-17T11:23:15.227Z,16.80
2018-05-17T11:28:18.327Z,16.70
2018-05-17T11:33:22.579Z,16.70
2018-05-17T11:38:25.689Z,16.70
2018-05-17T11:43:28.787Z,16.70
2018-05-17T11:48:31.883Z,16.70
2018-05-17T11:53:34.981Z,16.80
2018-05-17T11:58:38.841Z,16.80
2018-05-17T12:03:41.918Z,16.70
2018-05-17T12:08:46.153Z,16.70
2018-05-17T12:13:49.242Z,16.80
2018-05-17T12:18:52.330Z,16.80
2018-05-17T12:29:00.694Z,17.00
2018-05-17T12:34:04.568Z,17.10
2018-05-17T12:39:07.654Z,17.20
2018-05-17T12:44:11.509Z,17.10
2018-05-17T12:49:14.626Z,17.10
2018-05-17T12:54:17.736Z,17.10
2018-05-17T12:59:20.830Z,17.10
2018-05-17T13:04:23.914Z,17.20
2018-05-17T13:09:27.007Z,17.20
2018-05-17T13:19:35.350Z,17.30
2018-05-17T13:24:39.599Z,17.30
2018-05-17T13:29:43.086Z,17.30
2018-05-17T13:34:47.305Z,17.40
2018-05-17T13:39:50.394Z,17.40
2018-05-17T13:44:54.254Z,17.50
2018-05-17T13:49:57.746Z,17.60
2018-05-17T13:55:01.600Z,17.60
2018-05-17T14:00:04.690Z,17.60
2018-05-17T14:05:07.778Z,17.70
2018-05-17T14:10:10.874Z,17.70
2018-05-17T14:15:13.969Z,17.70
2018-05-17T14:20:17.057Z,17.80
2018-05-17T14:25:20.911Z,17.80
2018-05-17T14:30:24.010Z,17.90
2018-05-17T14:35:27.122Z,17.90
2018-05-17T14:40:30.611Z,18.00
2018-05-17T14:45:34.487Z,18.00
2018-05-17T14:55:43.635Z,18.00
2018-05-17T15:00:46.647Z,18.10
2018-05-17T15:05:49.723Z,18.10
2018-05-17T15:21:02.091Z,18.10
2018-05-17T15:26:06.013Z,18.10
2018-05-17T15:31:10.246Z,18.20
2018-05-17T15:36:13.397Z,18.20
2018-05-17T15:41:16.423Z,18.20
2018-05-17T15:46:19.510Z,18.30
2018-05-17T15:56:27.812Z,18.20
2018-05-17T16:01:30.913Z,18.30
2018-05-17T16:06:34.756Z,18.20
2018-05-17T16:21:46.739Z,18.10
2018-05-17T16:26:49.887Z,18.00
2018-05-17T16:31:54.114Z,18.10
2018-05-17T16:42:03.944Z,18.10
2018-05-17T16:52:12.218Z,18.20
2018-05-17T16:57:15.314Z,18.20
2018-05-17T17:07:23.257Z,18.00
2018-05-17T17:12:27.481Z,18.00
2018-05-17T17:17:30.958Z,17.90
2018-05-17T17:22:34.802Z,17.90
2018-05-17T17:32:43.998Z,17.80
2018-05-17T17:37:47.079Z,17.80
2018-05-17T17:42:50.174Z,17.70
2018-05-17T17:47:53.264Z,17.60
2018-05-17T17:52:56.358Z,17.60
2018-05-17T18:03:04.662Z,17.40
2018-05-17T18:08:07.762Z,17.30
2018-05-17T18:13:11.623Z,17.10
2018-05-17T18:18:14.715Z,17.00
2018-05-17T18:23:18.955Z,16.80
2018-05-17T18:33:27.253Z,16.50
2018-05-17T18:38:31.105Z,16.40
2018-05-17T18:43:34.193Z,16.30
2018-05-17T18:53:42.486Z,16.00
2018-05-17T18:58:46.352Z,15.90
2018-05-17T19:03:49.461Z,15.70
2018-05-17T19:08:52.555Z,15.60
2018-05-17T19:13:56.406Z,15.40
2018-05-17T19:18:59.501Z,15.30
2018-05-17T19:24:02.594Z,15.20
2018-05-17T19:29:06.082Z,15.00
2018-05-17T19:39:24.059Z,14.70
2018-05-17T19:49:33.219Z,14.50
2018-05-17T19:54:37.155Z,14.40
2018-05-17T20:04:54.724Z,14.20
2018-05-17T20:09:58.630Z,14.10
2018-05-17T20:15:01.874Z,13.90
2018-05-17T20:20:05.807Z,13.80
2018-05-17T20:25:10.402Z,13.70
2018-05-17T20:30:14.700Z,13.50
2018-05-17T20:35:17.738Z,13.50
2018-05-17T20:40:21.254Z,13.50
2018-05-17T20:45:24.354Z,13.60
2018-05-17T20:50:28.889Z,13.50
2018-05-17T20:55:33.603Z,13.40
2018-05-17T21:00:37.536Z,13.40
2018-05-17T21:05:42.062Z,13.30
2018-05-17T21:10:45.544Z,13.40
2018-05-17T21:15:48.730Z,13.30
2018-05-17T21:20:51.977Z,13.30
2018-05-17T21:25:55.204Z,13.10
2018-05-17T21:30:59.507Z,13.10
2018-05-17T21:36:02.759Z,12.90
2018-05-17T21:41:05.959Z,12.90
2018-05-17T21:46:10.903Z,12.90
2018-05-17T21:51:14.110Z,12.80
2018-05-17T21:56:17.661Z,12.70
2018-05-17T22:01:20.959Z,12.60
2018-05-17T22:06:25.416Z,12.50
2018-05-17T22:16:34.978Z,12.40
2018-05-17T22:21:39.283Z,12.30
2018-05-17T22:26:43.906Z,12.20
2018-05-17T22:31:47.031Z,12.10
2018-05-17T22:36:50.150Z,12.10
2018-05-17T22:41:53.666Z,12.00
2018-05-17T22:46:56.801Z,11.90
2018-05-17T22:52:00.384Z,11.80
2018-05-17T22:57:13.191Z,11.70
2018-05-17T23:02:16.294Z,11.60
2018-05-17T23:07:19.386Z,11.50
2018-05-17T23:12:22.486Z,11.50
2018-05-17T23:17:26.342Z,11.40
2018-05-17T23:22:37.450Z,11.30
2018-05-17T23:27:42.930Z,11.20
2018-05-17T23:32:46.406Z,11.10
2018-05-17T23:37:49.506Z,11.00
2018-05-17T23:42:52.602Z,10.90
2018-05-17T23:47:56.517Z,10.80
2018-05-17T23:52:59.716Z,10.70
2018-05-17T23:58:03.287Z,10.60
